createdAt,value
2018-02-13T15:13:21.603Z,17.08
2018-02-13T15:15:49.879Z,18.58
2018-02-13T15:18:30.108Z,21.92
2018-02-13T15:20:57.933Z,19.77
2018-02-13T15:23:25.839Z,18.73
2018-02-13T15:28:26.715Z,17.80
2018-02-13T15:30:54.397Z,23.90
2018-02-13T15:33:23.078Z,31.67
2018-02-13T15:35:51.430Z,29.27
2018-02-13T15:38:19.894Z,19.45
2018-02-13T15:40:48.383Z,15.18
2018-02-13T15:43:17.049Z,15.02
2018-02-13T15:45:46.610Z,19.90
2018-02-13T15:48:15.195Z,11.18
2018-02-13T15:50:43.649Z,19.20
2018-02-13T15:53:13.396Z,13.07
2018-02-13T15:55:42.211Z,10.48
2018-02-13T15:58:11.772Z,13.70
2018-02-13T16:00:39.988Z,20.35
2018-02-13T16:03:08.662Z,17.20
2018-02-13T16:05:37.300Z,17.35
2018-02-13T16:08:05.395Z,16.40
2018-02-13T16:10:43.880Z,16.27
2018-02-13T16:13:12.714Z,10.85
2018-02-13T16:15:40.484Z,12.02
2018-02-13T16:18:09.380Z,15.82
2018-02-13T16:20:39.961Z,106.07
2018-02-13T16:23:09.440Z,62.00
2018-02-13T16:25:37.889Z,27.87
2018-02-13T16:28:06.622Z,15.88
2018-02-13T16:30:34.332Z,18.50
2018-02-13T16:33:03.163Z,19.75
2018-02-13T16:35:31.291Z,17.20
2018-02-13T16:37:58.930Z,17.87
2018-02-13T16:40:27.476Z,19.00
2018-02-13T16:42:55.216Z,34.30
2018-02-13T16:45:22.884Z,40.97
2018-02-13T16:47:50.547Z,41.08
2018-02-13T16:50:18.182Z,31.37
2018-02-13T16:52:45.805Z,25.48
2018-02-13T16:55:13.418Z,27.25
2018-02-13T16:57:41.797Z,36.33
2018-02-13T17:00:09.400Z,42.03
2018-02-13T17:02:36.991Z,35.60
2018-02-13T17:05:04.586Z,43.20
2018-02-13T17:07:32.197Z,48.10
2018-02-13T17:10:00.653Z,52.10
2018-02-13T17:12:29.237Z,53.13
2018-02-13T17:14:57.598Z,59.90
2018-02-13T17:17:25.186Z,56.20
2018-02-13T17:19:53.547Z,54.92
2018-02-13T17:22:21.152Z,55.15
2018-02-13T17:24:48.795Z,49.47
2018-02-13T17:27:17.158Z,51.17
2018-02-13T17:29:44.788Z,36.97
2018-02-13T17:32:12.390Z,38.58
2018-02-13T17:34:40.023Z,55.25
2018-02-13T17:37:07.666Z,89.20
2018-02-13T17:39:35.294Z,45.97
2018-02-13T17:42:02.898Z,44.70
2018-02-13T17:44:30.499Z,61.37
2018-02-13T17:46:58.103Z,59.45
2018-02-13T17:49:26.471Z,27.50
2018-02-13T17:51:54.072Z,23.00
2018-02-13T17:54:21.687Z,15.35
2018-02-13T17:56:49.302Z,28.35
2018-02-13T17:59:16.913Z,20.08
2018-02-13T18:01:44.599Z,24.17
2018-02-13T18:04:12.682Z,39.00
2018-02-13T18:06:41.067Z,48.58
2018-02-13T18:09:09.489Z,39.38
2018-02-13T18:11:37.095Z,25.40
2018-02-13T18:14:04.731Z,34.20
2018-02-13T18:16:32.364Z,34.50
2018-02-13T18:19:00.731Z,37.80
2018-02-13T18:21:28.743Z,44.53
2018-02-13T18:23:56.717Z,48.15
2018-02-13T18:26:24.687Z,43.78
2018-02-13T18:28:52.295Z,45.45
2018-02-13T18:31:23.682Z,40.30
2018-02-13T18:36:33.862Z,38.83
2018-02-13T18:39:01.518Z,36.25
2018-02-13T18:41:29.099Z,35.67
2018-02-13T18:43:56.720Z,42.95
2018-02-13T18:46:24.338Z,45.33
2018-02-13T18:48:51.975Z,44.08
2018-02-13T18:51:20.348Z,44.50
2018-02-13T18:53:48.733Z,42.30
2018-02-13T18:56:17.097Z,45.45
2018-02-13T18:58:44.753Z,45.03
2018-02-13T19:01:12.365Z,37.65
2018-02-13T19:03:40.757Z,34.72
2018-02-13T19:06:08.395Z,42.53
2018-02-13T19:08:35.989Z,50.90
2018-02-13T19:11:03.617Z,45.17
2018-02-13T19:13:31.218Z,36.70
2018-02-13T19:15:58.824Z,44.65
2018-02-13T19:18:26.420Z,51.08
2018-02-13T19:20:54.030Z,36.92
2018-02-13T19:23:21.633Z,28.48
2018-02-13T19:25:49.246Z,25.50
2018-02-13T19:28:16.869Z,23.00
2018-02-13T19:30:44.646Z,24.05
2018-02-13T19:33:12.251Z,28.58
2018-02-13T19:35:39.846Z,33.53
2018-02-13T19:38:07.470Z,28.48
2018-02-13T19:40:35.107Z,36.63
2018-02-13T19:43:03.587Z,37.45
2018-02-13T19:45:31.208Z,29.58
2018-02-13T19:47:58.812Z,39.30
2018-02-13T19:50:26.778Z,37.00
2018-02-13T19:52:54.374Z,29.80
2018-02-13T19:55:22.745Z,34.05
2018-02-13T19:57:50.361Z,29.75
2018-02-13T20:00:17.967Z,29.17
2018-02-13T20:02:45.575Z,30.30
2018-02-13T20:05:13.170Z,24.02
2018-02-13T20:07:41.247Z,31.60
2018-02-13T20:10:08.844Z,32.10
2018-02-13T20:12:36.541Z,31.02
2018-02-13T20:15:04.883Z,32.38
2018-02-13T20:17:32.529Z,29.10
2018-02-13T20:20:00.195Z,36.47
2018-02-13T20:22:27.794Z,31.10
2018-02-13T20:24:55.422Z,43.60
2018-02-13T20:27:23.070Z,60.17
2018-02-13T20:29:54.668Z,45.00
2018-02-13T20:32:22.274Z,30.27
2018-02-13T20:34:49.874Z,33.28
2018-02-13T20:37:17.522Z,29.98
2018-02-13T20:39:45.166Z,53.58
2018-02-13T20:42:12.807Z,48.15
2018-02-13T20:44:40.436Z,46.08
2018-02-13T20:47:08.045Z,45.08
2018-02-13T20:49:35.676Z,35.88
2018-02-13T20:52:03.281Z,33.03
2018-02-13T20:54:31.634Z,27.80
2018-02-13T20:56:59.240Z,33.95
2018-02-13T20:59:27.599Z,47.67
2018-02-13T21:01:55.290Z,50.05
2018-02-13T21:04:23.647Z,43.70
2018-02-13T21:06:51.254Z,47.47
2018-02-13T21:09:18.866Z,48.92
2018-02-13T21:11:46.471Z,48.42
2018-02-13T21:14:14.075Z,40.75
2018-02-13T21:16:41.682Z,47.50
2018-02-13T21:19:10.047Z,32.05
2018-02-13T21:21:38.127Z,35.70
2018-02-13T21:24:05.733Z,43.13
2018-02-13T21:26:33.393Z,47.67
2018-02-13T21:29:00.992Z,32.85
2018-02-13T21:31:28.586Z,34.78
2018-02-13T21:33:57.027Z,36.90
2018-02-13T21:36:24.676Z,37.75
2018-02-13T21:38:52.271Z,43.15
2018-02-13T21:41:22.102Z,43.38
2018-02-13T21:43:49.707Z,37.58
2018-02-13T21:46:19.290Z,34.00
2018-02-13T21:48:46.910Z,31.87
2018-02-13T21:51:14.535Z,25.85
2018-02-13T21:53:42.159Z,28.10
2018-02-13T21:56:09.752Z,37.25
2018-02-13T21:58:37.404Z,27.15
2018-02-13T22:01:05.012Z,25.42
2018-02-13T22:03:33.370Z,21.98
2018-02-13T22:06:00.974Z,29.48
2018-02-13T22:08:28.581Z,30.17
2018-02-13T22:10:56.210Z,28.95
2018-02-13T22:13:23.806Z,26.17
2018-02-13T22:15:51.448Z,28.70
2018-02-13T22:18:19.408Z,37.65
2018-02-13T22:20:49.119Z,26.65
2018-02-13T22:23:16.732Z,26.25
2018-02-13T22:25:44.322Z,34.70
2018-02-13T22:28:13.762Z,27.10
2018-02-13T22:30:44.870Z,38.28
2018-02-13T22:33:13.493Z,29.75
2018-02-13T22:35:41.093Z,25.88
2018-02-13T22:38:08.751Z,32.28
2018-02-13T22:40:36.351Z,25.58
2018-02-13T22:43:05.147Z,31.20
2018-02-13T22:45:33.518Z,33.50
2018-02-13T22:48:01.749Z,26.40
2018-02-13T22:50:29.343Z,28.12
2018-02-13T22:52:58.024Z,28.00
2018-02-13T22:55:25.610Z,28.20
2018-02-13T22:57:53.576Z,27.37
2018-02-13T23:00:21.201Z,30.27
2018-02-13T23:02:49.138Z,32.40
2018-02-13T23:05:18.666Z,28.85
2018-02-13T23:07:47.023Z,28.30
2018-02-13T23:10:14.629Z,38.42
2018-02-13T23:12:42.227Z,32.20
2018-02-13T23:15:11.701Z,26.62
2018-02-13T23:17:39.639Z,24.17
2018-02-13T23:20:07.235Z,27.20
2018-02-13T23:22:37.058Z,36.80
2018-02-13T23:25:05.007Z,34.08
2018-02-13T23:27:33.363Z,34.15
2018-02-13T23:30:00.963Z,43.30
2018-02-13T23:32:30.256Z,43.15
2018-02-13T23:34:57.855Z,43.80
2018-02-13T23:37:26.086Z,41.35
2018-02-13T23:39:54.650Z,47.35
2018-02-13T23:42:22.241Z,49.83
2018-02-13T23:44:51.202Z,44.85
2018-02-13T23:47:19.434Z,50.40
2018-02-13T23:49:47.794Z,41.22
2018-02-13T23:52:15.399Z,41.05
2018-02-13T23:54:43.003Z,41.30
2018-02-13T23:57:10.602Z,48.58
2018-02-13T23:59:38.970Z,42.55
